sensor_id;sensor_type;location;lat;lon;timestamp;P1;durP1;ratioP1;P2;durP2;ratioP2
18776;SDS011;9517;51.174;4.160;2023-10-13T00:01:21;9.70;;;3.00;;
18776;SDS011;9517;51.174;4.160;2023-10-13T00:03:48;12.77;;;2.97;;
18776;SDS011;9517;51.174;4.160;2023-10-13T00:06:17;10.77;;;2.90;;
18776;SDS011;9517;51.174;4.160;2023-10-13T00:08:44;11.33;;;3.00;;
18776;SDS011;9517;51.174;4.160;2023-10-13T00:11:12;9.17;;;2.93;;
18776;SDS011;9517;51.174;4.160;2023-10-13T00:13:39;12.60;;;2.80;;
18776;SDS011;9517;51.174;4.160;2023-10-13T00:16:17;15.90;;;2.87;;
18776;SDS011;9517;51.174;4.160;2023-10-13T00:18:46;10.33;;;2.83;;
18776;SDS011;9517;51.174;4.160;2023-10-13T00:21:16;10.47;;;2.50;;
18776;SDS011;9517;51.174;4.160;2023-10-13T00:23:56;11.70;;;3.40;;
18776;SDS011;9517;51.174;4.160;2023-10-13T00:26:27;11.90;;;3.60;;
18776;SDS011;9517;51.174;4.160;2023-10-13T00:28:55;11.10;;;2.93;;
18776;SDS011;9517;51.174;4.160;2023-10-13T00:31:35;10.40;;;3.30;;
18776;SDS011;9517;51.174;4.160;2023-10-13T00:34:04;12.37;;;3.87;;
18776;SDS011;9517;51.174;4.160;2023-10-13T00:36:36;15.87;;;3.67;;
18776;SDS011;9517;51.174;4.160;2023-10-13T00:39:11;11.97;;;3.57;;
18776;SDS011;9517;51.174;4.160;2023-10-13T00:41:41;12.73;;;3.60;;
18776;SDS011;9517;51.174;4.160;2023-10-13T00:44:17;12.47;;;3.90;;
18776;SDS011;9517;51.174;4.160;2023-10-13T00:46:52;8.10;;;3.53;;
18776;SDS011;9517;51.174;4.160;2023-10-13T00:49:22;10.73;;;3.40;;
18776;SDS011;9517;51.174;4.160;2023-10-13T00:51:50;13.00;;;3.50;;
18776;SDS011;9517;51.174;4.160;2023-10-13T00:54:17;17.00;;;3.60;;
18776;SDS011;9517;51.174;4.160;2023-10-13T00:56:51;13.80;;;3.87;;
18776;SDS011;9517;51.174;4.160;2023-10-13T00:59:29;12.93;;;3.43;;
18776;SDS011;9517;51.174;4.160;2023-10-13T01:02:03;15.03;;;4.50;;
18776;SDS011;9517;51.174;4.160;2023-10-13T01:04:54;11.07;;;3.53;;
18776;SDS011;9517;51.174;4.160;2023-10-13T01:07:21;10.43;;;3.63;;
18776;SDS011;9517;51.174;4.160;2023-10-13T01:09:48;12.37;;;3.60;;
18776;SDS011;9517;51.174;4.160;2023-10-13T01:12:15;13.40;;;4.03;;
18776;SDS011;9517;51.174;4.160;2023-10-13T01:14:41;18.80;;;3.97;;
18776;SDS011;9517;51.174;4.160;2023-10-13T01:17:10;15.00;;;4.47;;
18776;SDS011;9517;51.174;4.160;2023-10-13T01:19:37;10.93;;;4.20;;
18776;SDS011;9517;51.174;4.160;2023-10-13T01:22:07;18.27;;;4.90;;
18776;SDS011;9517;51.174;4.160;2023-10-13T01:24:35;14.20;;;4.40;;
18776;SDS011;9517;51.174;4.160;2023-10-13T01:27:02;14.10;;;4.17;;
18776;SDS011;9517;51.174;4.160;2023-10-13T01:29:42;14.07;;;4.37;;
18776;SDS011;9517;51.174;4.160;2023-10-13T01:32:13;15.97;;;4.70;;
18776;SDS011;9517;51.174;4.160;2023-10-13T01:34:39;13.53;;;4.00;;
18776;SDS011;9517;51.174;4.160;2023-10-13T01:37:11;14.73;;;4.03;;
18776;SDS011;9517;51.174;4.160;2023-10-13T01:39:38;13.00;;;4.40;;
18776;SDS011;9517;51.174;4.160;2023-10-13T01:42:05;16.80;;;5.27;;
18776;SDS011;9517;51.174;4.160;2023-10-13T01:44:31;14.83;;;5.30;;
18776;SDS011;9517;51.174;4.160;2023-10-13T01:46:58;18.33;;;5.33;;
18776;SDS011;9517;51.174;4.160;2023-10-13T01:49:25;15.30;;;5.30;;
18776;SDS011;9517;51.174;4.160;2023-10-13T01:51:52;16.43;;;5.17;;
18776;SDS011;9517;51.174;4.160;2023-10-13T01:54:18;15.13;;;5.97;;
18776;SDS011;9517;51.174;4.160;2023-10-13T01:56:48;17.73;;;6.80;;
18776;SDS011;9517;51.174;4.160;2023-10-13T01:59:14;18.73;;;6.27;;
18776;SDS011;9517;51.174;4.160;2023-10-13T02:01:41;15.73;;;7.07;;
18776;SDS011;9517;51.174;4.160;2023-10-13T02:04:08;22.50;;;8.37;;
18776;SDS011;9517;51.174;4.160;2023-10-13T02:06:35;18.43;;;8.07;;
18776;SDS011;9517;51.174;4.160;2023-10-13T02:09:02;25.93;;;9.13;;
18776;SDS011;9517;51.174;4.160;2023-10-13T02:11:38;21.60;;;9.53;;
18776;SDS011;9517;51.174;4.160;2023-10-13T02:14:06;18.10;;;9.00;;
18776;SDS011;9517;51.174;4.160;2023-10-13T02:16:36;21.00;;;9.93;;
18776;SDS011;9517;51.174;4.160;2023-10-13T02:19:02;22.73;;;9.80;;
18776;SDS011;9517;51.174;4.160;2023-10-13T02:21:30;21.33;;;11.00;;
18776;SDS011;9517;51.174;4.160;2023-10-13T02:24:05;24.67;;;11.17;;
18776;SDS011;9517;51.174;4.160;2023-10-13T02:26:38;28.07;;;11.73;;
18776;SDS011;9517;51.174;4.160;2023-10-13T02:29:04;31.77;;;11.80;;
18776;SDS011;9517;51.174;4.160;2023-10-13T02:31:34;27.40;;;12.03;;
18776;SDS011;9517;51.174;4.160;2023-10-13T02:34:01;26.60;;;12.60;;
18776;SDS011;9517;51.174;4.160;2023-10-13T02:36:31;30.73;;;14.53;;
18776;SDS011;9517;51.174;4.160;2023-10-13T02:39:01;36.07;;;15.70;;
18776;SDS011;9517;51.174;4.160;2023-10-13T02:41:32;36.00;;;15.83;;
18776;SDS011;9517;51.174;4.160;2023-10-13T02:44:02;32.67;;;16.60;;
18776;SDS011;9517;51.174;4.160;2023-10-13T02:46:33;36.37;;;17.90;;
18776;SDS011;9517;51.174;4.160;2023-10-13T02:49:01;40.37;;;20.17;;
18776;SDS011;9517;51.174;4.160;2023-10-13T02:51:34;39.30;;;20.27;;
18776;SDS011;9517;51.174;4.160;2023-10-13T02:54:01;38.03;;;19.73;;
18776;SDS011;9517;51.174;4.160;2023-10-13T02:56:29;38.00;;;20.57;;
18776;SDS011;9517;51.174;4.160;2023-10-13T02:58:55;43.10;;;21.30;;
18776;SDS011;9517;51.174;4.160;2023-10-13T03:01:22;41.57;;;22.77;;
18776;SDS011;9517;51.174;4.160;2023-10-13T03:03:54;38.70;;;21.70;;
18776;SDS011;9517;51.174;4.160;2023-10-13T03:06:33;36.50;;;20.80;;
18776;SDS011;9517;51.174;4.160;2023-10-13T03:09:00;38.33;;;20.37;;
18776;SDS011;9517;51.174;4.160;2023-10-13T03:11:39;38.30;;;21.03;;
18776;SDS011;9517;51.174;4.160;2023-10-13T03:14:07;39.57;;;20.83;;
18776;SDS011;9517;51.174;4.160;2023-10-13T03:16:45;39.07;;;20.80;;
18776;SDS011;9517;51.174;4.160;2023-10-13T03:19:12;42.03;;;19.97;;
18776;SDS011;9517;51.174;4.160;2023-10-13T03:21:39;35.37;;;19.67;;
18776;SDS011;9517;51.174;4.160;2023-10-13T03:24:10;40.07;;;19.97;;
18776;SDS011;9517;51.174;4.160;2023-10-13T03:26:38;40.33;;;19.17;;
18776;SDS011;9517;51.174;4.160;2023-10-13T03:29:09;33.60;;;18.20;;
18776;SDS011;9517;51.174;4.160;2023-10-13T03:31:39;35.43;;;16.57;;
18776;SDS011;9517;51.174;4.160;2023-10-13T03:34:10;34.13;;;17.57;;
18776;SDS011;9517;51.174;4.160;2023-10-13T03:36:40;34.20;;;17.73;;
18776;SDS011;9517;51.174;4.160;2023-10-13T03:39:22;35.60;;;16.83;;
18776;SDS011;9517;51.174;4.160;2023-10-13T03:41:54;31.33;;;15.20;;
18776;SDS011;9517;51.174;4.160;2023-10-13T03:44:24;30.43;;;15.33;;
18776;SDS011;9517;51.174;4.160;2023-10-13T03:46:55;31.23;;;15.47;;
18776;SDS011;9517;51.174;4.160;2023-10-13T03:49:31;26.27;;;14.33;;
18776;SDS011;9517;51.174;4.160;2023-10-13T03:52:02;27.83;;;13.47;;
18776;SDS011;9517;51.174;4.160;2023-10-13T03:54:31;25.63;;;13.53;;
18776;SDS011;9517;51.174;4.160;2023-10-13T03:57:00;28.27;;;13.87;;
18776;SDS011;9517;51.174;4.160;2023-10-13T03:59:36;28.60;;;13.33;;
18776;SDS011;9517;51.174;4.160;2023-10-13T04:02:03;24.30;;;12.80;;
18776;SDS011;9517;51.174;4.160;2023-10-13T04:04:38;28.30;;;13.50;;
18776;SDS011;9517;51.174;4.160;2023-10-13T04:07:13;29.97;;;12.40;;
18776;SDS011;9517;51.174;4.160;2023-10-13T04:10:04;29.90;;;13.37;;
18776;SDS011;9517;51.174;4.160;2023-10-13T04:12:49;25.50;;;12.60;;
18776;SDS011;9517;51.174;4.160;2023-10-13T04:15:33;25.30;;;11.37;;
18776;SDS011;9517;51.174;4.160;2023-10-13T04:18:07;24.20;;;12.10;;
18776;SDS011;9517;51.174;4.160;2023-10-13T04:21:00;28.23;;;11.93;;
18776;SDS011;9517;51.174;4.160;2023-10-13T04:23:44;22.43;;;11.23;;
18776;SDS011;9517;51.174;4.160;2023-10-13T04:26:25;23.90;;;11.73;;
18776;SDS011;9517;51.174;4.160;2023-10-13T04:29:02;23.50;;;11.13;;
18776;SDS011;9517;51.174;4.160;2023-10-13T04:31:35;23.47;;;11.20;;
18776;SDS011;9517;51.174;4.160;2023-10-13T04:34:25;23.60;;;11.40;;
18776;SDS011;9517;51.174;4.160;2023-10-13T04:37:01;24.07;;;11.37;;
18776;SDS011;9517;51.174;4.160;2023-10-13T04:39:48;23.43;;;11.60;;
18776;SDS011;9517;51.174;4.160;2023-10-13T04:42:22;25.47;;;10.53;;
18776;SDS011;9517;51.174;4.160;2023-10-13T04:45:05;27.37;;;10.80;;
18776;SDS011;9517;51.174;4.160;2023-10-13T04:47:52;22.50;;;10.67;;
18776;SDS011;9517;51.174;4.160;2023-10-13T04:50:38;25.43;;;10.37;;
18776;SDS011;9517;51.174;4.160;2023-10-13T04:53:11;20.03;;;10.30;;
18776;SDS011;9517;51.174;4.160;2023-10-13T04:55:53;23.63;;;10.60;;
18776;SDS011;9517;51.174;4.160;2023-10-13T04:58:56;25.13;;;10.93;;
18776;SDS011;9517;51.174;4.160;2023-10-13T05:01:40;23.90;;;11.23;;
18776;SDS011;9517;51.174;4.160;2023-10-13T05:04:47;28.43;;;11.77;;
18776;SDS011;9517;51.174;4.160;2023-10-13T05:07:31;30.03;;;11.87;;
18776;SDS011;9517;51.174;4.160;2023-10-13T05:10:17;26.43;;;11.07;;
18776;SDS011;9517;51.174;4.160;2023-10-13T05:13:02;27.70;;;10.93;;
18776;SDS011;9517;51.174;4.160;2023-10-13T05:15:47;29.20;;;11.80;;
18776;SDS011;9517;51.174;4.160;2023-10-13T05:18:32;27.30;;;12.03;;
18776;SDS011;9517;51.174;4.160;2023-10-13T05:21:17;29.73;;;11.23;;
18776;SDS011;9517;51.174;4.160;2023-10-13T05:24:02;29.03;;;11.47;;
18776;SDS011;9517;51.174;4.160;2023-10-13T05:26:49;26.37;;;11.40;;
18776;SDS011;9517;51.174;4.160;2023-10-13T05:29:34;26.90;;;12.00;;
18776;SDS011;9517;51.174;4.160;2023-10-13T05:32:21;26.43;;;10.73;;
18776;SDS011;9517;51.174;4.160;2023-10-13T05:35:06;28.97;;;11.03;;
18776;SDS011;9517;51.174;4.160;2023-10-13T05:37:51;28.00;;;11.10;;
18776;SDS011;9517;51.174;4.160;2023-10-13T05:40:35;28.17;;;11.47;;
18776;SDS011;9517;51.174;4.160;2023-10-13T05:43:29;27.23;;;9.70;;
18776;SDS011;9517;51.174;4.160;2023-10-13T05:46:13;25.17;;;11.30;;
18776;SDS011;9517;51.174;4.160;2023-10-13T05:49:01;25.70;;;10.73;;
18776;SDS011;9517;51.174;4.160;2023-10-13T05:52:06;25.83;;;9.87;;
18776;SDS011;9517;51.174;4.160;2023-10-13T05:54:43;30.63;;;11.00;;
18776;SDS011;9517;51.174;4.160;2023-10-13T05:57:28;27.47;;;10.37;;
18776;SDS011;9517;51.174;4.160;2023-10-13T06:00:14;27.77;;;10.93;;
18776;SDS011;9517;51.174;4.160;2023-10-13T06:03:14;29.27;;;10.30;;
18776;SDS011;9517;51.174;4.160;2023-10-13T06:05:58;25.33;;;10.13;;
18776;SDS011;9517;51.174;4.160;2023-10-13T06:08:43;26.83;;;10.97;;
18776;SDS011;9517;51.174;4.160;2023-10-13T06:11:27;29.43;;;10.53;;
18776;SDS011;9517;51.174;4.160;2023-10-13T06:14:12;27.57;;;9.93;;
18776;SDS011;9517;51.174;4.160;2023-10-13T06:16:57;24.70;;;10.00;;
18776;SDS011;9517;51.174;4.160;2023-10-13T06:19:42;28.67;;;10.80;;
18776;SDS011;9517;51.174;4.160;2023-10-13T06:22:27;30.10;;;10.40;;
18776;SDS011;9517;51.174;4.160;2023-10-13T06:25:11;27.70;;;10.77;;
18776;SDS011;9517;51.174;4.160;2023-10-13T06:27:56;28.07;;;9.60;;
18776;SDS011;9517;51.174;4.160;2023-10-13T06:30:40;28.70;;;9.40;;
18776;SDS011;9517;51.174;4.160;2023-10-13T06:33:11;24.57;;;9.23;;
18776;SDS011;9517;51.174;4.160;2023-10-13T06:35:38;26.80;;;9.10;;
18776;SDS011;9517;51.174;4.160;2023-10-13T06:38:06;29.60;;;9.57;;
18776;SDS011;9517;51.174;4.160;2023-10-13T06:40:45;26.90;;;9.37;;
18776;SDS011;9517;51.174;4.160;2023-10-13T06:43:15;30.43;;;9.07;;
18776;SDS011;9517;51.174;4.160;2023-10-13T06:45:46;26.97;;;9.40;;
18776;SDS011;9517;51.174;4.160;2023-10-13T06:48:24;26.03;;;8.60;;
18776;SDS011;9517;51.174;4.160;2023-10-13T06:50:51;24.13;;;8.73;;
18776;SDS011;9517;51.174;4.160;2023-10-13T06:53:28;24.87;;;9.37;;
18776;SDS011;9517;51.174;4.160;2023-10-13T06:56:01;25.37;;;8.60;;
18776;SDS011;9517;51.174;4.160;2023-10-13T06:58:29;25.13;;;8.53;;
18776;SDS011;9517;51.174;4.160;2023-10-13T07:00:57;24.63;;;9.10;;
18776;SDS011;9517;51.174;4.160;2023-10-13T07:03:30;22.90;;;8.83;;
18776;SDS011;9517;51.174;4.160;2023-10-13T07:05:59;25.17;;;8.30;;
18776;SDS011;9517;51.174;4.160;2023-10-13T07:08:27;28.83;;;8.73;;
18776;SDS011;9517;51.174;4.160;2023-10-13T07:10:56;22.63;;;9.20;;
18776;SDS011;9517;51.174;4.160;2023-10-13T07:13:30;26.23;;;8.30;;
18776;SDS011;9517;51.174;4.160;2023-10-13T07:16:02;21.23;;;8.63;;
18776;SDS011;9517;51.174;4.160;2023-10-13T07:18:39;27.33;;;8.33;;
18776;SDS011;9517;51.174;4.160;2023-10-13T07:21:14;25.43;;;7.97;;
18776;SDS011;9517;51.174;4.160;2023-10-13T07:23:41;21.00;;;6.87;;
18776;SDS011;9517;51.174;4.160;2023-10-13T07:26:21;21.73;;;7.70;;
18776;SDS011;9517;51.174;4.160;2023-10-13T07:28:48;19.47;;;6.83;;
18776;SDS011;9517;51.174;4.160;2023-10-13T07:31:17;24.33;;;7.60;;
18776;SDS011;9517;51.174;4.160;2023-10-13T07:33:54;15.93;;;7.03;;
18776;SDS011;9517;51.174;4.160;2023-10-13T07:36:38;24.83;;;5.53;;
18776;SDS011;9517;51.174;4.160;2023-10-13T07:39:08;18.03;;;5.37;;
18776;SDS011;9517;51.174;4.160;2023-10-13T07:41:47;21.97;;;6.30;;
18776;SDS011;9517;51.174;4.160;2023-10-13T07:44:19;22.60;;;6.60;;
18776;SDS011;9517;51.174;4.160;2023-10-13T07:46:50;21.30;;;6.20;;
18776;SDS011;9517;51.174;4.160;2023-10-13T07:49:28;16.40;;;5.70;;
18776;SDS011;9517;51.174;4.160;2023-10-13T07:52:02;19.80;;;5.73;;
18776;SDS011;9517;51.174;4.160;2023-10-13T07:54:43;19.13;;;5.73;;
18776;SDS011;9517;51.174;4.160;2023-10-13T07:57:12;24.17;;;4.90;;
18776;SDS011;9517;51.174;4.160;2023-10-13T07:59:41;15.73;;;5.90;;
18776;SDS011;9517;51.174;4.160;2023-10-13T08:02:13;22.13;;;6.37;;
18776;SDS011;9517;51.174;4.160;2023-10-13T08:05:02;18.33;;;5.47;;
18776;SDS011;9517;51.174;4.160;2023-10-13T08:07:39;18.03;;;5.83;;
18776;SDS011;9517;51.174;4.160;2023-10-13T08:10:07;15.97;;;6.73;;
18776;SDS011;9517;51.174;4.160;2023-10-13T08:12:35;17.20;;;5.60;;
18776;SDS011;9517;51.174;4.160;2023-10-13T08:15:07;18.57;;;6.00;;
18776;SDS011;9517;51.174;4.160;2023-10-13T08:17:46;15.67;;;5.83;;
18776;SDS011;9517;51.174;4.160;2023-10-13T08:20:18;17.27;;;5.90;;
18776;SDS011;9517;51.174;4.160;2023-10-13T08:22:47;18.50;;;6.13;;
18776;SDS011;9517;51.174;4.160;2023-10-13T08:25:14;18.63;;;6.27;;
18776;SDS011;9517;51.174;4.160;2023-10-13T08:27:45;22.03;;;5.90;;
18776;SDS011;9517;51.174;4.160;2023-10-13T08:30:30;18.97;;;5.63;;
18776;SDS011;9517;51.174;4.160;2023-10-13T08:33:07;19.43;;;6.10;;
18776;SDS011;9517;51.174;4.160;2023-10-13T08:35:44;24.30;;;5.63;;
18776;SDS011;9517;51.174;4.160;2023-10-13T08:38:30;17.20;;;6.03;;
18776;SDS011;9517;51.174;4.160;2023-10-13T08:41:15;20.57;;;5.83;;
18776;SDS011;9517;51.174;4.160;2023-10-13T08:43:55;20.27;;;6.23;;
18776;SDS011;9517;51.174;4.160;2023-10-13T08:46:34;17.63;;;6.10;;
18776;SDS011;9517;51.174;4.160;2023-10-13T08:49:28;18.60;;;5.77;;
18776;SDS011;9517;51.174;4.160;2023-10-13T08:52:07;19.27;;;5.67;;
18776;SDS011;9517;51.174;4.160;2023-10-13T08:54:50;21.13;;;6.00;;
18776;SDS011;9517;51.174;4.160;2023-10-13T08:57:38;19.47;;;5.90;;
18776;SDS011;9517;51.174;4.160;2023-10-13T09:00:06;22.53;;;6.30;;
18776;SDS011;9517;51.174;4.160;2023-10-13T09:03:14;20.90;;;6.87;;
18776;SDS011;9517;51.174;4.160;2023-10-13T09:06:03;18.07;;;6.03;;
18776;SDS011;9517;51.174;4.160;2023-10-13T09:08:36;15.80;;;5.63;;
18776;SDS011;9517;51.174;4.160;2023-10-13T09:11:31;17.17;;;6.30;;
18776;SDS011;9517;51.174;4.160;2023-10-13T09:14:12;18.87;;;5.83;;
18776;SDS011;9517;51.174;4.160;2023-10-13T09:17:00;16.33;;;5.77;;
18776;SDS011;9517;51.174;4.160;2023-10-13T09:19:42;15.43;;;5.70;;
18776;SDS011;9517;51.174;4.160;2023-10-13T09:22:19;20.37;;;6.03;;
18776;SDS011;9517;51.174;4.160;2023-10-13T09:24:54;18.23;;;6.17;;
18776;SDS011;9517;51.174;4.160;2023-10-13T09:27:25;16.13;;;5.77;;
18776;SDS011;9517;51.174;4.160;2023-10-13T09:29:56;19.13;;;6.07;;
18776;SDS011;9517;51.174;4.160;2023-10-13T09:32:35;21.40;;;5.90;;
18776;SDS011;9517;51.174;4.160;2023-10-13T09:35:11;17.00;;;5.83;;
18776;SDS011;9517;51.174;4.160;2023-10-13T09:37:44;21.93;;;6.50;;
18776;SDS011;9517;51.174;4.160;2023-10-13T09:40:15;21.50;;;6.23;;
18776;SDS011;9517;51.174;4.160;2023-10-13T09:42:59;20.03;;;5.70;;
18776;SDS011;9517;51.174;4.160;2023-10-13T09:45:31;16.27;;;5.63;;
18776;SDS011;9517;51.174;4.160;2023-10-13T09:48:01;20.53;;;5.97;;
18776;SDS011;9517;51.174;4.160;2023-10-13T09:50:32;15.90;;;5.67;;
18776;SDS011;9517;51.174;4.160;2023-10-13T09:53:06;18.23;;;5.80;;
18776;SDS011;9517;51.174;4.160;2023-10-13T09:55:38;20.53;;;6.27;;
18776;SDS011;9517;51.174;4.160;2023-10-13T09:58:10;17.63;;;6.10;;
18776;SDS011;9517;51.174;4.160;2023-10-13T10:00:42;24.07;;;7.03;;
18776;SDS011;9517;51.174;4.160;2023-10-13T10:03:21;19.53;;;5.53;;
18776;SDS011;9517;51.174;4.160;2023-10-13T10:06:04;19.43;;;5.63;;
18776;SDS011;9517;51.174;4.160;2023-10-13T10:08:39;24.40;;;6.37;;
18776;SDS011;9517;51.174;4.160;2023-10-13T10:11:26;17.37;;;5.83;;
18776;SDS011;9517;51.174;4.160;2023-10-13T10:14:13;17.30;;;5.90;;
18776;SDS011;9517;51.174;4.160;2023-10-13T10:16:50;17.43;;;5.87;;
18776;SDS011;9517;51.174;4.160;2023-10-13T10:19:44;18.67;;;5.10;;
18776;SDS011;9517;51.174;4.160;2023-10-13T10:22:25;20.80;;;6.37;;
18776;SDS011;9517;51.174;4.160;2023-10-13T10:24:58;18.80;;;6.40;;
18776;SDS011;9517;51.174;4.160;2023-10-13T10:27:30;21.17;;;6.43;;
18776;SDS011;9517;51.174;4.160;2023-10-13T10:29:58;19.90;;;6.53;;
18776;SDS011;9517;51.174;4.160;2023-10-13T10:32:32;15.63;;;5.47;;
18776;SDS011;9517;51.174;4.160;2023-10-13T10:35:04;27.77;;;7.30;;
18776;SDS011;9517;51.174;4.160;2023-10-13T10:37:34;21.07;;;6.30;;
18776;SDS011;9517;51.174;4.160;2023-10-13T10:40:06;17.97;;;5.83;;
18776;SDS011;9517;51.174;4.160;2023-10-13T10:42:47;16.53;;;6.40;;
18776;SDS011;9517;51.174;4.160;2023-10-13T10:45:17;18.70;;;6.17;;
18776;SDS011;9517;51.174;4.160;2023-10-13T10:47:47;20.97;;;6.07;;
18776;SDS011;9517;51.174;4.160;2023-10-13T10:50:24;18.33;;;6.87;;
18776;SDS011;9517;51.174;4.160;2023-10-13T10:53:00;22.73;;;6.63;;
18776;SDS011;9517;51.174;4.160;2023-10-13T10:55:33;16.20;;;6.43;;
18776;SDS011;9517;51.174;4.160;2023-10-13T10:58:04;19.37;;;5.67;;
18776;SDS011;9517;51.174;4.160;2023-10-13T11:00:47;24.13;;;6.70;;
18776;SDS011;9517;51.174;4.160;2023-10-13T11:03:15;17.10;;;5.80;;
18776;SDS011;9517;51.174;4.160;2023-10-13T11:05:43;23.63;;;6.70;;
18776;SDS011;9517;51.174;4.160;2023-10-13T11:08:20;21.43;;;6.37;;
18776;SDS011;9517;51.174;4.160;2023-10-13T11:10:56;16.87;;;6.83;;
18776;SDS011;9517;51.174;4.160;2023-10-13T11:13:38;19.10;;;6.07;;
18776;SDS011;9517;51.174;4.160;2023-10-13T11:16:19;24.60;;;6.60;;
18776;SDS011;9517;51.174;4.160;2023-10-13T11:18:59;18.63;;;6.37;;
18776;SDS011;9517;51.174;4.160;2023-10-13T11:21:28;19.77;;;7.00;;
18776;SDS011;9517;51.174;4.160;2023-10-13T11:23:57;39.77;;;7.63;;
18776;SDS011;9517;51.174;4.160;2023-10-13T11:26:33;18.97;;;6.83;;
18776;SDS011;9517;51.174;4.160;2023-10-13T11:29:03;18.37;;;6.43;;
18776;SDS011;9517;51.174;4.160;2023-10-13T11:31:35;22.23;;;6.37;;
18776;SDS011;9517;51.174;4.160;2023-10-13T11:34:04;18.00;;;7.00;;
18776;SDS011;9517;51.174;4.160;2023-10-13T11:36:32;22.60;;;7.27;;
18776;SDS011;9517;51.174;4.160;2023-10-13T11:39:00;25.63;;;6.37;;
18776;SDS011;9517;51.174;4.160;2023-10-13T11:41:27;20.33;;;6.63;;
18776;SDS011;9517;51.174;4.160;2023-10-13T11:43:58;19.87;;;6.57;;
18776;SDS011;9517;51.174;4.160;2023-10-13T11:46:39;16.77;;;6.17;;
18776;SDS011;9517;51.174;4.160;2023-10-13T11:49:21;18.73;;;6.33;;
18776;SDS011;9517;51.174;4.160;2023-10-13T11:52:05;22.50;;;6.73;;
18776;SDS011;9517;51.174;4.160;2023-10-13T11:54:52;28.37;;;6.10;;
18776;SDS011;9517;51.174;4.160;2023-10-13T11:57:19;19.97;;;6.23;;
18776;SDS011;9517;51.174;4.160;2023-10-13T11:59:46;23.93;;;5.60;;
18776;SDS011;9517;51.174;4.160;2023-10-13T12:02:23;17.17;;;5.97;;
18776;SDS011;9517;51.174;4.160;2023-10-13T12:05:07;22.23;;;6.67;;
18776;SDS011;9517;51.174;4.160;2023-10-13T12:07:42;24.53;;;5.97;;
18776;SDS011;9517;51.174;4.160;2023-10-13T12:10:13;19.17;;;5.60;;
18776;SDS011;9517;51.174;4.160;2023-10-13T12:12:59;21.97;;;6.67;;
18776;SDS011;9517;51.174;4.160;2023-10-13T12:15:31;21.63;;;5.67;;
18776;SDS011;9517;51.174;4.160;2023-10-13T12:18:16;24.47;;;6.63;;
18776;SDS011;9517;51.174;4.160;2023-10-13T12:20:44;22.23;;;6.23;;
18776;SDS011;9517;51.174;4.160;2023-10-13T12:23:14;17.40;;;5.33;;
18776;SDS011;9517;51.174;4.160;2023-10-13T12:25:46;18.63;;;4.97;;
18776;SDS011;9517;51.174;4.160;2023-10-13T12:28:25;19.67;;;6.37;;
18776;SDS011;9517;51.174;4.160;2023-10-13T12:30:56;21.70;;;5.53;;
18776;SDS011;9517;51.174;4.160;2023-10-13T12:33:37;23.13;;;5.40;;
18776;SDS011;9517;51.174;4.160;2023-10-13T12:36:06;21.80;;;5.53;;
18776;SDS011;9517;51.174;4.160;2023-10-13T12:38:34;17.10;;;5.87;;
18776;SDS011;9517;51.174;4.160;2023-10-13T12:41:39;14.87;;;5.40;;
18776;SDS011;9517;51.174;4.160;2023-10-13T12:44:23;14.87;;;4.60;;
18776;SDS011;9517;51.174;4.160;2023-10-13T12:47:08;18.40;;;4.93;;
18776;SDS011;9517;51.174;4.160;2023-10-13T12:50:02;19.27;;;5.60;;
18776;SDS011;9517;51.174;4.160;2023-10-13T12:52:49;18.07;;;5.80;;
18776;SDS011;9517;51.174;4.160;2023-10-13T12:55:16;19.97;;;5.43;;
18776;SDS011;9517;51.174;4.160;2023-10-13T12:57:46;21.77;;;5.60;;
18776;SDS011;9517;51.174;4.160;2023-10-13T13:00:18;14.80;;;5.17;;
18776;SDS011;9517;51.174;4.160;2023-10-13T13:02:51;18.13;;;5.80;;
18776;SDS011;9517;51.174;4.160;2023-10-13T13:05:22;18.30;;;5.23;;
18776;SDS011;9517;51.174;4.160;2023-10-13T13:07:53;21.20;;;6.83;;
18776;SDS011;9517;51.174;4.160;2023-10-13T13:10:21;18.50;;;5.80;;
18776;SDS011;9517;51.174;4.160;2023-10-13T13:13:00;21.53;;;5.20;;
18776;SDS011;9517;51.174;4.160;2023-10-13T13:15:29;17.37;;;5.80;;
18776;SDS011;9517;51.174;4.160;2023-10-13T13:17:56;23.77;;;5.67;;
18776;SDS011;9517;51.174;4.160;2023-10-13T13:20:25;16.47;;;5.40;;
18776;SDS011;9517;51.174;4.160;2023-10-13T13:22:53;17.13;;;4.97;;
18776;SDS011;9517;51.174;4.160;2023-10-13T13:25:27;15.90;;;5.27;;
18776;SDS011;9517;51.174;4.160;2023-10-13T13:27:55;15.77;;;5.33;;
18776;SDS011;9517;51.174;4.160;2023-10-13T13:30:24;19.07;;;5.07;;
18776;SDS011;9517;51.174;4.160;2023-10-13T13:32:55;17.57;;;4.97;;
18776;SDS011;9517;51.174;4.160;2023-10-13T13:35:25;17.67;;;4.83;;
18776;SDS011;9517;51.174;4.160;2023-10-13T13:37:58;20.80;;;6.07;;
18776;SDS011;9517;51.174;4.160;2023-10-13T13:40:35;20.03;;;5.80;;
18776;SDS011;9517;51.174;4.160;2023-10-13T13:43:04;16.07;;;5.53;;
18776;SDS011;9517;51.174;4.160;2023-10-13T13:45:32;18.10;;;5.40;;
18776;SDS011;9517;51.174;4.160;2023-10-13T13:48:00;16.17;;;4.90;;
18776;SDS011;9517;51.174;4.160;2023-10-13T13:50:37;19.00;;;5.60;;
18776;SDS011;9517;51.174;4.160;2023-10-13T13:53:06;16.27;;;5.50;;
18776;SDS011;9517;51.174;4.160;2023-10-13T13:55:36;18.23;;;5.57;;
18776;SDS011;9517;51.174;4.160;2023-10-13T13:58:05;19.87;;;5.93;;
18776;SDS011;9517;51.174;4.160;2023-10-13T14:00:35;18.50;;;5.93;;
18776;SDS011;9517;51.174;4.160;2023-10-13T14:03:07;18.17;;;5.63;;
18776;SDS011;9517;51.174;4.160;2023-10-13T14:05:41;19.17;;;5.97;;
18776;SDS011;9517;51.174;4.160;2023-10-13T14:08:09;19.47;;;5.30;;
18776;SDS011;9517;51.174;4.160;2023-10-13T14:10:40;16.17;;;5.90;;
18776;SDS011;9517;51.174;4.160;2023-10-13T14:13:20;21.43;;;5.60;;
18776;SDS011;9517;51.174;4.160;2023-10-13T14:16:08;15.80;;;4.67;;
18776;SDS011;9517;51.174;4.160;2023-10-13T14:18:41;20.33;;;6.10;;
18776;SDS011;9517;51.174;4.160;2023-10-13T14:21:11;21.53;;;5.50;;
18776;SDS011;9517;51.174;4.160;2023-10-13T14:23:43;15.50;;;5.50;;
18776;SDS011;9517;51.174;4.160;2023-10-13T14:26:15;19.80;;;5.70;;
18776;SDS011;9517;51.174;4.160;2023-10-13T14:28:45;17.77;;;5.70;;
18776;SDS011;9517;51.174;4.160;2023-10-13T14:31:26;17.63;;;5.47;;
18776;SDS011;9517;51.174;4.160;2023-10-13T14:33:53;13.67;;;5.63;;
18776;SDS011;9517;51.174;4.160;2023-10-13T14:36:23;15.03;;;5.37;;
18776;SDS011;9517;51.174;4.160;2023-10-13T14:38:53;18.13;;;5.67;;
18776;SDS011;9517;51.174;4.160;2023-10-13T14:41:21;16.83;;;5.33;;
18776;SDS011;9517;51.174;4.160;2023-10-13T14:43:48;15.73;;;5.50;;
18776;SDS011;9517;51.174;4.160;2023-10-13T14:46:16;21.17;;;5.50;;
18776;SDS011;9517;51.174;4.160;2023-10-13T14:48:44;17.93;;;5.13;;
18776;SDS011;9517;51.174;4.160;2023-10-13T14:51:14;17.50;;;6.10;;
18776;SDS011;9517;51.174;4.160;2023-10-13T14:53:43;17.77;;;4.73;;
18776;SDS011;9517;51.174;4.160;2023-10-13T14:56:11;16.83;;;5.40;;
18776;SDS011;9517;51.174;4.160;2023-10-13T14:58:38;17.03;;;5.30;;
18776;SDS011;9517;51.174;4.160;2023-10-13T15:01:11;20.83;;;5.60;;
18776;SDS011;9517;51.174;4.160;2023-10-13T15:03:40;23.50;;;5.67;;
18776;SDS011;9517;51.174;4.160;2023-10-13T15:06:14;19.60;;;6.03;;
18776;SDS011;9517;51.174;4.160;2023-10-13T15:08:47;19.23;;;5.73;;
18776;SDS011;9517;51.174;4.160;2023-10-13T15:11:14;18.93;;;5.90;;
18776;SDS011;9517;51.174;4.160;2023-10-13T15:13:43;22.30;;;5.20;;
18776;SDS011;9517;51.174;4.160;2023-10-13T15:16:14;22.73;;;6.17;;
18776;SDS011;9517;51.174;4.160;2023-10-13T15:18:42;21.53;;;5.23;;
18776;SDS011;9517;51.174;4.160;2023-10-13T15:21:10;21.37;;;5.50;;
18776;SDS011;9517;51.174;4.160;2023-10-13T15:23:38;15.03;;;5.07;;
18776;SDS011;9517;51.174;4.160;2023-10-13T15:26:10;14.93;;;5.00;;
18776;SDS011;9517;51.174;4.160;2023-10-13T15:28:39;19.97;;;5.57;;
18776;SDS011;9517;51.174;4.160;2023-10-13T15:31:14;18.53;;;5.23;;